KTB weather

Thorne Bay Seaplane Base
Thorne Bay, Alaska, United States

Public forecast

Using degrees Fahrenheit for public forecast. Weather courtesy of forecast.io.

Closest aviation weather report (METAR) to Thorne Bay Seaplane Base

Closest report is Klawock Airport, 19.4 nm (35.9 km) WSW. Retrieved 2019/11/20 06:53 UTC (1 hour ago):

PAKW 200653Z AUTO 16005KT 9SM OVC024 07/06 A3019 RMK RAE05 SLP225 P0000 T00720056 TSNO VIA AUTODIAL

Closest aviation forecast (TAF) to Thorne Bay Seaplane Base

Closest forecast is Klawock Airport, 19.4 nm (35.9 km) WSW. Retrieved 2019/11/20 06:30 UTC (2 hours ago):

TAF PAKW 200529Z 2006/2106 VRB05KT 6SM -RA BR BKN025 OVC035 TEMPO 2006/2009 2SM RA BR SCT008 OVC020 FM200900 17006KT 2SM -RA BR BKN008 OVC015 FM201700 14008KT P6SM VCSH SCT015 BKN025 OVC060 FM210100 17007KT P6SM VCSH SCT015 OVC025 AMD LTD TO CLD VIS AND WIND